Time;durP1;ratioP1;P1;durP2;ratioP2;P2;SDS_P1;SDS_P2;PMS_P1;PMS_P2;Temp;Humidity;BMP_temperature;BMP_pressure;BME280_temperature;BME280_humidity;BME280_pressure;Samples;Min_cycle;Max_cycle;Signal;HPM_P1;HPM_P2
2021/04/06 00:02:14;;;;;;;2.53;1.30;;;3.80;99.90;;;;;;5017498;28;20192;-74
2021/04/06 00:04:41;;;;;;;3.17;1.30;;;3.80;99.90;;;;;;5032565;28;20179;-74
2021/04/06 00:07:11;;;;;;;2.23;1.50;;;3.80;99.90;;;;;;5033585;28;20177;-74
2021/04/06 00:09:39;;;;;;;2.43;1.23;;;3.70;99.90;;;;;;5034413;28;20666;-74
2021/04/06 00:12:07;;;;;;;2.77;1.30;;;3.80;99.90;;;;;;5034359;28;20223;-74
2021/04/06 00:14:37;;;;;;;2.70;1.80;;;3.80;99.90;;;;;;5035016;28;20197;-74
2021/04/06 00:17:08;;;;;;;2.10;1.20;;;3.90;99.90;;;;;;5036301;28;20540;-74
2021/04/06 00:19:39;;;;;;;3.80;1.47;;;3.90;99.90;;;;;;5035056;28;20230;-74
2021/04/06 00:22:06;;;;;;;3.00;1.63;;;3.90;99.90;;;;;;5034139;28;20619;-74
2021/04/06 00:24:36;;;;;;;5.53;1.70;;;3.90;99.90;;;;;;5033292;28;20575;-74
2021/04/06 00:27:18;;;;;;;7.37;1.43;;;3.90;99.90;;;;;;5024109;28;20187;-74
2021/04/06 00:29:51;;;;;;;3.43;1.27;;;3.90;99.90;;;;;;5034301;28;20205;-74
2021/04/06 00:32:19;;;;;;;3.60;1.40;;;3.80;99.90;;;;;;5033784;28;20293;-74
2021/04/06 00:34:45;;;;;;;2.43;1.20;;;3.70;99.90;;;;;;5034011;28;20187;-74
2021/04/06 00:37:14;;;;;;;3.90;1.70;;;3.70;99.90;;;;;;5033948;28;20197;-74
2021/04/06 00:39:41;;;;;;;2.90;1.50;;;3.70;99.90;;;;;;5024395;28;20295;-74
2021/04/06 00:42:15;;;;;;;5.40;1.70;;;3.70;99.90;;;;;;5034212;28;20219;-74
2021/04/06 00:44:55;;;;;;;4.27;1.83;;;3.60;99.90;;;;;;5033863;28;20247;-75
2021/04/06 00:47:26;;;;;;;4.03;1.50;;;3.60;99.90;;;;;;5032210;28;20211;-75
2021/04/06 00:49:57;;;;;;;2.70;1.50;;;3.60;99.90;;;;;;5032421;28;20234;-75
2021/04/06 00:52:26;;;;;;;3.93;1.47;;;3.60;99.90;;;;;;5032300;28;20646;-75
2021/04/06 00:54:59;;;;;;;1.87;1.40;;;3.60;99.90;;;;;;5032247;28;20200;-75
2021/04/06 00:57:29;;;;;;;2.93;1.10;;;3.70;99.90;;;;;;5032375;28;20647;-75
2021/04/06 01:00:13;;;;;;;2.03;1.20;;;3.60;99.90;;;;;;5033528;28;20192;-75
2021/04/06 01:02:43;;;;;;;5.00;2.00;;;3.60;99.90;;;;;;5032203;28;20688;-74
2021/04/06 01:05:11;;;;;;;2.10;1.40;;;3.70;99.90;;;;;;5032177;28;20169;-75
2021/04/06 01:07:37;;;;;;;3.47;1.30;;;3.70;99.90;;;;;;5033763;28;20314;-75
2021/04/06 01:10:07;;;;;;;5.53;1.20;;;3.70;99.90;;;;;;5031939;28;20265;-74
2021/04/06 01:12:33;;;;;;;3.43;1.17;;;3.50;99.90;;;;;;5033289;28;20203;-75
2021/04/06 01:15:01;;;;;;;3.43;1.57;;;3.50;99.90;;;;;;5033098;28;20699;-75
2021/04/06 01:17:33;;;;;;;4.40;1.50;;;3.50;99.90;;;;;;5033256;28;20190;-75
2021/04/06 01:20:09;;;;;;;3.97;1.57;;;3.50;99.90;;;;;;5033358;28;20173;-73
2021/04/06 01:22:37;;;;;;;2.70;1.57;;;3.30;99.90;;;;;;5031991;28;20198;-75
2021/04/06 01:25:05;;;;;;;3.20;1.90;;;3.40;99.90;;;;;;5031979;28;20181;-75
2021/04/06 01:27:31;;;;;;;4.53;1.60;;;3.30;99.90;;;;;;5024130;28;20181;-75
2021/04/06 01:29:57;;;;;;;2.93;1.40;;;3.40;99.90;;;;;;5033488;28;20177;-75
2021/04/06 01:32:27;;;;;;;3.90;1.30;;;3.30;99.90;;;;;;5033013;28;20216;-75
2021/04/06 01:34:53;;;;;;;1.77;1.33;;;3.20;99.90;;;;;;5033269;28;20190;-75
2021/04/06 01:37:21;;;;;;;3.40;1.40;;;3.20;99.90;;;;;;5022143;28;20260;-75
2021/04/06 01:39:50;;;;;;;3.60;1.60;;;3.20;99.90;;;;;;5033037;28;20169;-75
2021/04/06 01:42:17;;;;;;;2.23;1.53;;;3.20;99.90;;;;;;5032965;28;20559;-75
2021/04/06 01:44:46;;;;;;;3.93;1.70;;;3.10;99.90;;;;;;5032992;28;20181;-75
2021/04/06 01:47:14;;;;;;;3.17;1.70;;;3.00;99.90;;;;;;5035687;28;20218;-75
2021/04/06 01:49:41;;;;;;;3.83;1.63;;;2.90;99.90;;;;;;5037295;28;20534;-75
2021/04/06 01:52:07;;;;;;;4.00;1.70;;;2.80;99.90;;;;;;5036964;28;20279;-75
2021/04/06 01:54:35;;;;;;;4.27;1.63;;;2.80;99.90;;;;;;5035706;28;20281;-75
2021/04/06 01:57:18;;;;;;;3.43;1.50;;;2.90;99.90;;;;;;5035771;28;20171;-75
2021/04/06 01:59:54;;;;;;;4.23;1.50;;;2.80;99.90;;;;;;5037011;28;20170;-74
2021/04/06 02:02:27;;;;;;;2.47;1.40;;;2.80;99.90;;;;;;5035633;28;20281;-74
2021/04/06 02:05:02;;;;;;;6.53;1.47;;;2.60;99.90;;;;;;5037103;28;20546;-75
2021/04/06 02:07:33;;;;;;;3.13;1.50;;;2.50;99.90;;;;;;5036815;28;20715;-74
2021/04/06 02:09:59;;;;;;;2.40;1.63;;;2.30;99.90;;;;;;5036752;28;20175;-73
2021/04/06 02:12:26;;;;;;;4.73;1.47;;;2.20;99.90;;;;;;5015126;28;20202;-74
2021/04/06 02:14:59;;;;;;;5.10;1.57;;;2.10;99.90;;;;;;5013045;28;20211;-75
2021/04/06 02:17:25;;;;;;;3.37;1.13;;;1.90;99.90;;;;;;5006999;28;20167;-75
2021/04/06 02:19:51;;;;;;;2.33;1.30;;;1.80;99.90;;;;;;5033867;28;20187;-74
2021/04/06 02:22:19;;;;;;;1.83;1.43;;;1.70;99.90;;;;;;5036267;28;20195;-74
2021/04/06 02:24:46;;;;;;;4.17;1.33;;;1.60;99.90;;;;;;5036746;28;20201;-74
2021/04/06 02:27:34;;;;;;;2.27;1.43;;;1.60;99.90;;;;;;5027608;28;20521;-74
2021/04/06 02:30:09;;;;;;;3.10;1.60;;;1.50;99.90;;;;;;5036042;28;20175;-74
2021/04/06 02:32:36;;;;;;;2.33;1.30;;;1.40;99.90;;;;;;5036075;28;20205;-75
2021/04/06 02:35:06;;;;;;;7.33;1.97;;;1.40;99.90;;;;;;5031657;28;20202;-74
2021/04/06 02:37:36;;;;;;;1.90;1.40;;;1.40;99.90;;;;;;5032429;28;20236;-75
2021/04/06 02:40:08;;;;;;;3.83;1.37;;;1.40;99.90;;;;;;5036171;28;20187;-74
2021/04/06 02:42:35;;;;;;;3.90;1.53;;;1.30;99.90;;;;;;5036247;28;20272;-75
2021/04/06 02:45:07;;;;;;;3.07;1.60;;;1.20;99.90;;;;;;5036043;28;20261;-75
2021/04/06 02:47:35;;;;;;;4.60;1.87;;;1.30;99.90;;;;;;5036150;28;20167;-75
2021/04/06 02:50:01;;;;;;;6.43;2.27;;;1.30;99.90;;;;;;5035946;28;20171;-74
2021/04/06 02:52:27;;;;;;;5.97;1.50;;;1.40;99.90;;;;;;5035860;28;20601;-75
2021/04/06 02:54:53;;;;;;;2.17;1.60;;;1.30;99.90;;;;;;5034505;28;20205;-75
2021/04/06 02:57:24;;;;;;;2.43;1.70;;;1.20;99.90;;;;;;5034523;28;20178;-75
2021/04/06 02:59:51;;;;;;;4.20;1.60;;;1.20;99.90;;;;;;5034814;28;20622;-75
2021/04/06 03:02:17;;;;;;;2.33;1.43;;;1.20;99.90;;;;;;5034475;28;20194;-75
2021/04/06 03:04:44;;;;;;;2.77;1.80;;;1.30;99.90;;;;;;5035814;28;20262;-75
2021/04/06 03:07:22;;;;;;;3.40;1.87;;;1.40;99.90;;;;;;5034458;28;20270;-75
2021/04/06 03:10:00;;;;;;;3.37;2.00;;;1.50;99.90;;;;;;5035510;28;20257;-75
2021/04/06 03:12:28;;;;;;;4.63;2.17;;;1.50;99.90;;;;;;5035551;28;20198;-75
2021/04/06 03:14:53;;;;;;;2.67;1.93;;;1.60;99.90;;;;;;5035586;28;20225;-75
2021/04/06 03:17:19;;;;;;;4.63;2.13;;;1.60;99.90;;;;;;5017596;28;20198;-75
2021/04/06 03:19:45;;;;;;;2.20;1.70;;;1.60;99.90;;;;;;5016813;28;20605;-75
2021/04/06 03:22:13;;;;;;;3.23;1.97;;;1.60;99.90;;;;;;5008780;28;20207;-75
2021/04/06 03:24:40;;;;;;;6.13;1.67;;;1.70;99.90;;;;;;5006104;28;20195;-75
2021/04/06 03:27:08;;;;;;;4.13;2.00;;;1.50;99.90;;;;;;5022453;28;20181;-75
2021/04/06 03:29:34;;;;;;;4.13;2.13;;;1.40;99.90;;;;;;5014747;28;20179;-75
2021/04/06 03:32:00;;;;;;;2.53;2.03;;;1.50;99.90;;;;;;5016492;28;20208;-75
2021/04/06 03:34:34;;;;;;;7.73;2.23;;;1.50;99.90;;;;;;5016969;28;20195;-75
2021/04/06 03:37:07;;;;;;;2.93;1.97;;;1.40;99.90;;;;;;5016066;28;20618;-75
2021/04/06 03:39:35;;;;;;;5.03;2.53;;;1.40;99.90;;;;;;5017498;28;20213;-75
2021/04/06 03:42:02;;;;;;;4.83;2.40;;;1.20;99.90;;;;;;5013667;28;20224;-75
2021/04/06 03:44:30;;;;;;;6.90;2.80;;;1.30;99.90;;;;;;5017791;28;20172;-75
2021/04/06 03:47:00;;;;;;;6.00;2.07;;;1.30;99.90;;;;;;5016393;28;20173;-75
2021/04/06 03:49:29;;;;;;;5.10;1.63;;;1.20;99.90;;;;;;5015584;28;20278;-75
2021/04/06 03:52:00;;;;;;;4.87;1.80;;;1.10;99.90;;;;;;5013431;28;20201;-75
2021/04/06 03:54:49;;;;;;;4.80;2.53;;;1.10;99.90;;;;;;5014393;28;20196;-75
2021/04/06 04:00:11;;;;;;;6.07;3.17;;;1.00;99.90;;;;;;5018627;28;20162;-74
2021/04/06 04:02:36;;;;;;;4.97;2.50;;;0.90;99.90;;;;;;4998093;28;20300;-75
2021/04/06 04:05:03;;;;;;;6.50;2.83;;;0.90;99.90;;;;;;4999178;28;20271;-74
2021/04/06 04:07:32;;;;;;;7.60;4.07;;;0.80;99.90;;;;;;4997612;28;20234;-74
2021/04/06 04:09:58;;;;;;;4.47;2.30;;;0.80;99.90;;;;;;4999314;28;20172;-74
2021/04/06 04:12:24;;;;;;;4.13;2.23;;;0.90;99.90;;;;;;4996870;28;20205;-74
2021/04/06 04:14:50;;;;;;;3.63;2.47;;;1.00;99.90;;;;;;5009705;28;20549;-74
2021/04/06 04:17:16;;;;;;;4.57;2.47;;;1.10;99.90;;;;;;5033278;28;20191;-74
2021/04/06 04:19:42;;;;;;;4.20;2.50;;;1.20;99.90;;;;;;5033504;28;20177;-74
2021/04/06 04:22:07;;;;;;;3.50;2.53;;;1.30;99.90;;;;;;5033980;28;20206;-73
2021/04/06 04:24:33;;;;;;;3.40;2.83;;;1.40;99.90;;;;;;5033510;28;20184;-74
2021/04/06 04:26:59;;;;;;;5.37;2.20;;;1.50;99.90;;;;;;5026444;28;20172;-74
2021/04/06 04:29:25;;;;;;;4.83;2.20;;;1.20;99.90;;;;;;5032446;28;20179;-74
2021/04/06 04:31:51;;;;;;;7.00;2.47;;;1.20;99.90;;;;;;5028176;28;20210;-74
2021/04/06 04:34:17;;;;;;;4.73;2.70;;;1.20;99.90;;;;;;5047147;23;20230;-72
2021/04/06 04:36:43;;;;;;;5.73;3.17;;;1.20;99.90;;;;;;5014252;28;20179;-72
2021/04/06 04:39:09;;;;;;;5.53;2.90;;;1.10;99.90;;;;;;5014263;28;20263;-73
2021/04/06 04:41:36;;;;;;;6.23;2.43;;;1.00;99.90;;;;;;5014398;28;20545;-72
2021/04/06 04:44:02;;;;;;;5.90;2.57;;;0.80;99.90;;;;;;5014344;28;20227;-72
2021/04/06 04:46:29;;;;;;;6.37;2.30;;;0.90;99.90;;;;;;5014259;28;20172;-72
2021/04/06 04:48:56;;;;;;;5.30;2.37;;;1.10;99.90;;;;;;5012769;28;20195;-72
2021/04/06 04:51:21;;;;;;;5.70;2.33;;;1.10;99.90;;;;;;5014205;28;20184;-72
2021/04/06 04:53:47;;;;;;;4.77;2.63;;;1.10;99.90;;;;;;5013532;28;20753;-72
2021/04/06 04:56:14;;;;;;;6.73;2.10;;;1.10;99.90;;;;;;5014189;28;20195;-72
2021/04/06 04:58:39;;;;;;;3.97;2.13;;;1.10;99.90;;;;;;5013757;28;20230;-72
2021/04/06 05:01:05;;;;;;;3.80;1.50;;;1.10;99.90;;;;;;5014135;28;20219;-72
2021/04/06 05:03:32;;;;;;;6.70;2.20;;;1.10;99.90;;;;;;5013825;28;20210;-72
2021/04/06 05:05:58;;;;;;;5.23;2.33;;;1.10;99.90;;;;;;5013799;28;20638;-72
2021/04/06 05:08:24;;;;;;;11.37;2.90;;;1.00;99.90;;;;;;5013569;28;20265;-72
2021/04/06 05:10:50;;;;;;;4.00;2.30;;;1.00;99.90;;;;;;5014437;28;20176;-72
2021/04/06 05:13:16;;;;;;;4.60;2.80;;;1.00;99.90;;;;;;5012366;28;20190;-72
2021/04/06 05:15:41;;;;;;;3.87;2.10;;;1.00;99.90;;;;;;5013388;28;20329;-72
2021/04/06 05:18:07;;;;;;;6.00;2.90;;;0.90;99.90;;;;;;5013571;28;20195;-72
2021/04/06 05:20:33;;;;;;;5.40;2.30;;;0.90;99.90;;;;;;5011848;28;20183;-72
2021/04/06 05:22:59;;;;;;;6.67;2.40;;;0.90;99.90;;;;;;5013643;28;20631;-73
2021/04/06 05:25:24;;;;;;;9.43;2.50;;;0.90;99.90;;;;;;5013392;28;20209;-72
2021/04/06 05:27:50;;;;;;;6.20;2.47;;;0.80;99.90;;;;;;5013473;28;20179;-72
2021/04/06 05:30:16;;;;;;;7.03;2.30;;;0.80;99.90;;;;;;5012267;28;20197;-72
2021/04/06 05:32:42;;;;;;;3.43;2.50;;;0.80;99.90;;;;;;5011896;28;20265;-72
2021/04/06 05:35:09;;;;;;;4.77;2.70;;;0.80;99.90;;;;;;5013143;28;20263;-73
2021/04/06 05:37:35;;;;;;;4.00;2.40;;;0.80;99.90;;;;;;5013034;28;20595;-72
2021/04/06 05:40:00;;;;;;;4.53;1.97;;;0.90;99.90;;;;;;5013289;28;20591;-72
2021/04/06 05:42:26;;;;;;;5.17;1.70;;;1.10;99.90;;;;;;5006154;28;20187;-72
2021/04/06 05:44:53;;;;;;;2.57;1.40;;;1.10;99.90;;;;;;5008930;28;20214;-72
2021/04/06 05:47:24;;;;;;;5.47;1.50;;;1.30;99.90;;;;;;5012208;28;20175;-72
2021/04/06 05:49:50;;;;;;;3.77;1.50;;;1.30;99.90;;;;;;5011797;28;20186;-72
2021/04/06 05:52:16;;;;;;;2.23;1.33;;;1.40;99.90;;;;;;5012068;28;20237;-73
2021/04/06 05:54:42;;;;;;;3.47;1.50;;;1.40;99.90;;;;;;5011403;28;20253;-73
2021/04/06 05:57:09;;;;;;;2.70;1.30;;;1.50;99.90;;;;;;5011903;28;20650;-72
2021/04/06 05:59:34;;;;;;;5.37;1.83;;;1.30;99.90;;;;;;5012725;28;20167;-72
2021/04/06 06:02:00;;;;;;;5.13;1.93;;;1.30;99.90;;;;;;5012434;28;20179;-72
2021/04/06 06:04:26;;;;;;;3.53;1.40;;;1.30;99.90;;;;;;5012415;28;20214;-73
2021/04/06 06:06:52;;;;;;;3.53;1.57;;;1.40;99.90;;;;;;5011347;28;20263;-72
2021/04/06 06:09:35;;;;;;;4.73;1.43;;;1.40;99.90;;;;;;5012450;28;20265;-72
2021/04/06 06:12:03;;;;;;;5.03;1.40;;;1.40;99.90;;;;;;5012513;28;20167;-72
2021/04/06 06:14:33;;;;;;;3.33;1.30;;;1.40;99.90;;;;;;4997428;28;20231;-72
2021/04/06 06:17:21;;;;;;;4.03;1.67;;;1.40;99.90;;;;;;5009650;28;20269;-72
2021/04/06 06:20:16;;;;;;;3.50;1.40;;;1.40;99.90;;;;;;5012077;28;20171;-72
2021/04/06 06:22:41;;;;;;;2.63;1.13;;;1.20;99.90;;;;;;5026164;28;20179;-73
2021/04/06 06:25:11;;;;;;;3.50;1.23;;;1.40;99.90;;;;;;5012566;28;21642;-73
2021/04/06 06:27:42;;;;;;;5.97;1.40;;;1.40;99.90;;;;;;5012316;28;20207;-72
2021/04/06 06:33:23;;;;;;;4.17;1.40;;;1.60;99.90;;;;;;5012261;28;20514;-73
2021/04/06 06:35:50;;;;;;;3.37;1.43;;;1.50;99.90;;;;;;5015167;28;20203;-73
2021/04/06 06:38:25;;;;;;;3.67;1.37;;;1.60;99.90;;;;;;5016413;28;20179;-73
2021/04/06 06:40:56;;;;;;;1.80;1.10;;;1.70;99.90;;;;;;5016717;28;20170;-73
2021/04/06 06:43:24;;;;;;;3.67;1.30;;;1.60;99.90;;;;;;5015002;28;20171;-74
2021/04/06 06:45:51;;;;;;;2.77;1.30;;;1.70;99.90;;;;;;5016503;28;20180;-72
2021/04/06 06:48:32;;;;;;;2.50;1.10;;;1.90;99.90;;;;;;5015770;28;20181;-72
2021/04/06 06:51:02;;;;;;;3.67;1.40;;;2.00;99.90;;;;;;5014657;28;20241;-74
2021/04/06 06:53:31;;;;;;;3.93;1.40;;;2.10;99.90;;;;;;5016025;28;20234;-74
2021/04/06 06:55:57;;;;;;;2.30;1.13;;;2.20;99.70;;;;;;5014273;28;20207;-74
2021/04/06 06:58:30;;;;;;;3.30;1.57;;;2.30;99.40;;;;;;5014732;28;20181;-74
2021/04/06 07:00:57;;;;;;;2.50;1.50;;;2.30;99.20;;;;;;5016218;28;20645;-73
2021/04/06 07:03:22;;;;;;;4.37;1.53;;;2.10;99.30;;;;;;5014476;28;20210;-73
2021/04/06 07:05:48;;;;;;;4.27;1.10;;;1.90;99.20;;;;;;5015911;28;20214;-74
2021/04/06 07:08:14;;;;;;;4.83;1.63;;;2.00;99.90;;;;;;5009985;28;20190;-73
2021/04/06 07:10:43;;;;;;;3.07;1.37;;;2.10;99.60;;;;;;5014102;28;20202;-73
2021/04/06 07:13:20;;;;;;;4.33;1.13;;;2.10;99.80;;;;;;5012971;28;20300;-73
2021/04/06 07:15:48;;;;;;;4.40;1.30;;;2.20;99.00;;;;;;5015378;28;20204;-73
2021/04/06 07:18:19;;;;;;;3.53;1.60;;;2.20;98.70;;;;;;5015839;28;20176;-73
2021/04/06 07:20:51;;;;;;;3.67;1.23;;;1.90;98.60;;;;;;5014386;28;20171;-73
2021/04/06 07:23:34;;;;;;;5.33;1.53;;;1.90;98.90;;;;;;5012817;28;20183;-74
2021/04/06 07:26:10;;;;;;;4.63;1.50;;;1.90;99.10;;;;;;5015459;28;20171;-73
2021/04/06 07:28:37;;;;;;;2.90;1.00;;;2.10;99.10;;;;;;5015872;28;20581;-74
2021/04/06 07:31:04;;;;;;;4.97;1.17;;;2.10;99.20;;;;;;5015635;28;20634;-74
2021/04/06 07:33:31;;;;;;;4.07;1.00;;;2.50;99.10;;;;;;5015300;28;20291;-73
2021/04/06 07:36:05;;;;;;;1.97;0.97;;;2.60;98.50;;;;;;5015459;28;20606;-73
2021/04/06 07:38:44;;;;;;;4.13;1.33;;;2.60;98.40;;;;;;5015508;28;20182;-74
2021/04/06 07:41:14;;;;;;;4.90;1.13;;;2.70;98.90;;;;;;5015282;28;20179;-73
2021/04/06 07:43:40;;;;;;;2.40;0.90;;;2.80;98.90;;;;;;5012229;28;20602;-74
2021/04/06 07:46:05;;;;;;;2.20;1.10;;;2.70;98.90;;;;;;5011160;28;20195;-73
2021/04/06 07:48:44;;;;;;;3.17;1.10;;;2.70;98.70;;;;;;5014442;28;20223;-71
2021/04/06 07:51:14;;;;;;;3.53;1.10;;;2.90;99.20;;;;;;5015242;28;20261;-73
2021/04/06 07:54:03;;;;;;;3.23;1.23;;;2.90;98.90;;;;;;5015059;28;20662;-73
2021/04/06 07:56:44;;;;;;;5.77;1.30;;;2.80;98.80;;;;;;5015312;28;20193;-73
2021/04/06 07:59:30;;;;;;;3.03;0.80;;;3.10;99.60;;;;;;5015024;28;20181;-73
2021/04/06 08:01:56;;;;;;;4.47;1.17;;;3.20;99.90;;;;;;5014851;28;20205;-73
2021/04/06 08:04:27;;;;;;;2.47;1.17;;;3.30;99.80;;;;;;5014901;28;20197;-73
2021/04/06 08:06:54;;;;;;;4.37;1.30;;;3.40;99.90;;;;;;5014926;28;20230;-72
2021/04/06 08:09:33;;;;;;;3.33;1.30;;;3.40;99.90;;;;;;5009420;28;20184;-72
2021/04/06 08:12:14;;;;;;;2.17;1.03;;;3.50;99.70;;;;;;5012159;28;20208;-72
2021/04/06 08:15:22;;;;;;;3.17;1.13;;;3.50;99.90;;;;;;5014812;28;20212;-72
2021/04/06 08:17:51;;;;;;;1.73;1.13;;;3.60;99.40;;;;;;4995196;28;20184;-72
2021/04/06 08:20:19;;;;;;;3.70;1.10;;;3.60;99.20;;;;;;5014461;28;20266;-73
2021/04/06 08:22:44;;;;;;;4.50;1.10;;;3.70;99.10;;;;;;5007326;28;20236;-73
2021/04/06 08:25:19;;;;;;;4.30;1.00;;;3.50;99.10;;;;;;5014628;28;20611;-73
2021/04/06 08:27:46;;;;;;;1.70;1.00;;;3.50;99.50;;;;;;5013108;28;20175;-73
2021/04/06 08:30:27;;;;;;;2.50;0.80;;;3.60;99.70;;;;;;5013298;28;20650;-73
2021/04/06 08:33:02;;;;;;;2.77;0.90;;;3.70;99.50;;;;;;5014442;28;20250;-73
2021/04/06 08:35:45;;;;;;;2.47;0.80;;;3.50;99.00;;;;;;5014028;28;20212;-74
2021/04/06 08:38:23;;;;;;;2.07;0.87;;;3.60;99.20;;;;;;5014069;28;20185;-73
2021/04/06 08:40:56;;;;;;;2.77;1.00;;;3.70;99.00;;;;;;5014442;28;20193;-73
2021/04/06 08:43:31;;;;;;;1.17;0.80;;;3.60;98.50;;;;;;5013690;28;20190;-73
2021/04/06 08:46:08;;;;;;;1.40;0.80;;;3.40;98.50;;;;;;5007364;28;20222;-77
2021/04/06 08:48:46;;;;;;;2.07;0.83;;;3.30;98.90;;;;;;5013396;28;20207;-77
2021/04/06 08:51:33;;;;;;;0.97;0.67;;;3.30;98.60;;;;;;5013541;28;20188;-77
2021/04/06 08:54:11;;;;;;;4.43;0.60;;;3.60;99.90;;;;;;5014699;28;20213;-77
2021/04/06 08:56:45;;;;;;;3.33;1.13;;;3.70;99.00;;;;;;5014194;28;20201;-77
2021/04/06 08:59:19;;;;;;;2.17;0.60;;;3.60;98.60;;;;;;5014550;28;20670;-77
2021/04/06 09:01:56;;;;;;;1.53;0.57;;;3.50;99.20;;;;;;5014894;28;20590;-77
2021/04/06 09:04:32;;;;;;;2.73;0.70;;;3.70;99.20;;;;;;5013203;28;20211;-77
2021/04/06 09:06:58;;;;;;;5.00;0.90;;;3.80;98.90;;;;;;5014455;28;20178;-77
2021/04/06 09:09:26;;;;;;;3.07;0.90;;;3.90;98.80;;;;;;5014659;28;20183;-77
2021/04/06 09:11:53;;;;;;;2.53;1.20;;;3.90;98.60;;;;;;5015138;28;20225;-77
2021/04/06 09:14:20;;;;;;;2.30;1.10;;;4.00;99.00;;;;;;5015446;28;20204;-77
2021/04/06 09:16:46;;;;;;;1.97;0.80;;;4.10;98.90;;;;;;5015614;28;20253;-77
2021/04/06 09:19:14;;;;;;;3.73;1.50;;;4.20;99.00;;;;;;5014743;28;20559;-77
2021/04/06 09:21:42;;;;;;;5.23;1.17;;;4.10;98.40;;;;;;5014341;28;20199;-77
2021/04/06 09:24:11;;;;;;;7.07;1.60;;;4.10;99.40;;;;;;5013902;28;20232;-78
2021/04/06 09:26:38;;;;;;;2.17;0.90;;;4.20;99.90;;;;;;5015104;28;20186;-78
2021/04/06 09:29:17;;;;;;;2.63;1.07;;;4.20;99.20;;;;;;5014846;28;20173;-78
2021/04/06 09:31:49;;;;;;;1.57;1.10;;;4.20;99.00;;;;;;5015130;28;20181;-78
2021/04/06 09:34:21;;;;;;;3.33;1.13;;;4.20;99.60;;;;;;5014609;28;20203;-77
2021/04/06 09:36:55;;;;;;;7.47;1.70;;;4.10;99.90;;;;;;5014693;28;20586;-77
2021/04/06 09:39:21;;;;;;;7.00;1.40;;;4.00;99.90;;;;;;5013426;28;20178;-77
2021/04/06 09:41:47;;;;;;;4.37;1.50;;;4.00;99.90;;;;;;5014929;28;20185;-77
2021/04/06 09:44:17;;;;;;;7.30;1.50;;;4.10;99.90;;;;;;5013366;28;20684;-77
2021/04/06 09:46:48;;;;;;;5.53;1.00;;;4.00;99.90;;;;;;5014390;28;20231;-78
2021/04/06 09:49:15;;;;;;;3.07;1.20;;;4.10;99.90;;;;;;5014771;28;20195;-78
2021/04/06 09:51:50;;;;;;;3.00;1.10;;;4.10;99.90;;;;;;5014903;28;20528;-78
2021/04/06 09:54:49;;;;;;;2.07;1.20;;;4.10;99.90;;;;;;5014496;28;20281;-78
2021/04/06 09:57:15;;;;;;;6.00;1.67;;;4.20;99.90;;;;;;5013454;28;20245;-78
2021/04/06 09:59:55;;;;;;;2.30;1.13;;;4.40;99.90;;;;;;5017017;28;20581;-78
2021/04/06 10:02:23;;;;;;;1.70;0.90;;;4.50;99.90;;;;;;5016020;28;20182;-78
2021/04/06 10:04:51;;;;;;;3.30;1.10;;;4.80;99.90;;;;;;5013893;28;20202;-78
2021/04/06 10:07:28;;;;;;;3.70;0.83;;;5.00;99.90;;;;;;5016707;28;20183;-78
2021/04/06 10:09:57;;;;;;;5.93;1.13;;;5.20;99.90;;;;;;5020080;28;20189;-78
2021/04/06 10:12:25;;;;;;;4.57;1.27;;;5.10;99.90;;;;;;5020556;28;20207;-78
2021/04/06 10:14:52;;;;;;;6.13;1.20;;;5.40;99.90;;;;;;5018948;28;20297;-78
2021/04/06 10:17:41;;;;;;;3.60;1.00;;;5.50;99.30;;;;;;5019139;28;20182;-78
2021/04/06 10:20:11;;;;;;;3.50;1.33;;;5.60;99.80;;;;;;5019115;28;20202;-78
2021/04/06 10:22:50;;;;;;;3.30;1.07;;;5.60;98.30;;;;;;5019867;28;20179;-78
2021/04/06 10:25:19;;;;;;;3.33;1.20;;;5.70;98.40;;;;;;5018476;28;20712;-78
2021/04/06 10:27:48;;;;;;;3.50;1.00;;;5.70;97.90;;;;;;5019638;28;20225;-78
2021/04/06 10:30:35;;;;;;;3.77;2.23;;;5.70;97.90;;;;;;5019681;28;20192;-79
2021/04/06 10:33:07;;;;;;;3.60;0.90;;;5.70;97.60;;;;;;5020864;28;20178;-79
2021/04/06 10:35:36;;;;;;;2.40;0.80;;;5.60;98.00;;;;;;5073800;22;20225;-71
2021/04/06 10:38:04;;;;;;;1.60;0.77;;;5.60;97.00;;;;;;5056524;28;20529;-72
2021/04/06 10:40:40;;;;;;;2.53;0.90;;;5.60;96.80;;;;;;5053232;28;20170;-72
2021/04/06 10:43:12;;;;;;;2.20;0.90;;;5.60;96.60;;;;;;5042206;28;20672;-72
2021/04/06 10:45:47;;;;;;;1.43;0.70;;;5.40;95.20;;;;;;5056192;28;20211;-71
2021/04/06 10:48:13;;;;;;;1.87;0.70;;;5.40;96.00;;;;;;5056224;28;20172;-72
2021/04/06 10:50:43;;;;;;;3.27;0.80;;;5.60;95.90;;;;;;5056236;28;20282;-72
2021/04/06 10:53:27;;;;;;;1.60;0.60;;;5.70;96.00;;;;;;5054655;28;20175;-72
2021/04/06 10:56:15;;;;;;;2.20;0.80;;;5.60;96.30;;;;;;5054465;28;20707;-71
2021/04/06 10:58:48;;;;;;;1.17;0.70;;;5.60;96.30;;;;;;5055814;28;20193;-72
2021/04/06 11:01:18;;;;;;;1.57;0.73;;;5.50;95.70;;;;;;5056223;28;20196;-71
2021/04/06 11:03:59;;;;;;;2.27;0.80;;;5.50;96.40;;;;;;5054496;28;20224;-71
2021/04/06 11:06:30;;;;;;;2.20;0.80;;;5.50;96.80;;;;;;5042302;28;20548;-71
2021/04/06 11:08:58;;;;;;;2.27;0.80;;;5.60;96.40;;;;;;5042045;28;20177;-73
2021/04/06 11:11:34;;;;;;;1.87;0.60;;;5.60;95.30;;;;;;5055783;28;20227;-71
2021/04/06 11:14:06;;;;;;;1.70;0.83;;;5.50;96.30;;;;;;5054149;28;20276;-71
2021/04/06 11:16:33;;;;;;;1.77;0.87;;;5.50;96.40;;;;;;5055750;28;20635;-72
2021/04/06 11:19:17;;;;;;;2.67;1.17;;;5.40;96.50;;;;;;5054150;28;20167;-72
2021/04/06 11:21:46;;;;;;;2.10;0.87;;;5.30;97.00;;;;;;5054386;28;20195;-71
2021/04/06 11:24:14;;;;;;;2.30;0.90;;;5.60;96.70;;;;;;5055235;28;20208;-71
2021/04/06 11:26:39;;;;;;;3.10;1.27;;;5.50;96.10;;;;;;5047414;28;20204;-71
2021/04/06 11:29:12;;;;;;;2.07;0.90;;;5.50;95.70;;;;;;5053513;28;20646;-71
2021/04/06 11:31:39;;;;;;;2.27;0.93;;;5.40;96.10;;;;;;5055106;28;20586;-70
2021/04/06 11:34:07;;;;;;;4.87;0.90;;;5.40;96.00;;;;;;5055221;28;20265;-71
2021/04/06 11:36:34;;;;;;;2.97;0.90;;;5.40;96.30;;;;;;5055463;28;20627;-71
2021/04/06 11:39:02;;;;;;;2.13;0.83;;;5.50;95.40;;;;;;5055095;28;20255;-71
2021/04/06 11:41:28;;;;;;;2.43;0.63;;;5.60;96.10;;;;;;5053695;28;20173;-71
2021/04/06 11:43:53;;;;;;;1.80;0.70;;;5.60;96.00;;;;;;5055080;28;20535;-71
2021/04/06 11:46:19;;;;;;;1.00;0.53;;;5.70;95.90;;;;;;5054699;28;20178;-71
2021/04/06 11:48:46;;;;;;;2.17;0.67;;;5.90;95.50;;;;;;5053752;28;20173;-72
2021/04/06 11:51:13;;;;;;;2.30;0.90;;;6.00;95.10;;;;;;5054985;28;20199;-72
2021/04/06 11:53:39;;;;;;;4.23;0.77;;;5.90;95.90;;;;;;5054973;28;20536;-71
2021/04/06 11:56:05;;;;;;;2.77;0.93;;;6.00;96.40;;;;;;5054692;28;20194;-71
2021/04/06 11:58:31;;;;;;;0.63;0.50;;;5.90;96.00;;;;;;5054805;28;20224;-71
2021/04/06 12:00:56;;;;;;;2.17;0.60;;;5.90;95.70;;;;;;5050641;28;20566;-71
2021/04/06 12:03:22;;;;;;;0.83;0.57;;;5.90;94.60;;;;;;5054619;28;20191;-71
2021/04/06 12:05:48;;;;;;;4.27;1.70;;;5.70;94.80;;;;;;5053865;28;20197;-71
2021/04/06 12:08:13;;;;;;;7.27;4.87;;;5.90;95.50;;;;;;5054740;28;20190;-72
2021/04/06 12:10:39;;;;;;;2.17;0.90;;;5.90;95.30;;;;;;5055057;28;20208;-71
2021/04/06 12:13:05;;;;;;;2.20;0.90;;;6.00;95.80;;;;;;5054609;28;20191;-72
2021/04/06 12:15:30;;;;;;;1.50;0.63;;;6.10;95.00;;;;;;5054797;28;20209;-71
2021/04/06 12:17:56;;;;;;;2.63;0.90;;;6.20;94.60;;;;;;5054466;28;20177;-71
2021/04/06 12:20:22;;;;;;;1.80;0.90;;;6.40;94.70;;;;;;5054177;28;20697;-71
2021/04/06 12:22:50;;;;;;;1.23;0.80;;;6.30;94.90;;;;;;5054393;28;20183;-71
2021/04/06 12:25:16;;;;;;;2.67;1.70;;;6.30;93.40;;;;;;5054149;28;20211;-72
2021/04/06 12:27:42;;;;;;;2.10;0.77;;;6.30;94.30;;;;;;5045533;28;20178;-71
2021/04/06 12:30:08;;;;;;;2.40;0.80;;;6.30;94.70;;;;;;5054084;28;20177;-71
2021/04/06 12:32:33;;;;;;;2.43;0.90;;;6.30;94.80;;;;;;5054148;28;20257;-72
2021/04/06 12:34:59;;;;;;;2.53;0.73;;;6.30;94.20;;;;;;5053830;28;20805;-71
2021/04/06 12:37:26;;;;;;;1.17;0.70;;;6.10;93.30;;;;;;5054023;28;20178;-71
2021/04/06 12:39:52;;;;;;;1.63;0.70;;;6.10;94.10;;;;;;5053877;28;20174;-71
2021/04/06 12:42:18;;;;;;;8.10;0.80;;;6.10;93.20;;;;;;5054246;28;20188;-71
2021/04/06 12:44:44;;;;;;;2.70;0.70;;;6.00;93.50;;;;;;5049363;28;20216;-71
2021/04/06 12:47:10;;;;;;;1.40;0.70;;;5.90;93.70;;;;;;5053912;28;20554;-71
2021/04/06 12:49:35;;;;;;;1.93;0.70;;;5.90;93.80;;;;;;5053854;28;20196;-72
2021/04/06 12:52:01;;;;;;;3.70;0.77;;;5.80;93.80;;;;;;5053887;28;20188;-71
2021/04/06 12:54:27;;;;;;;2.53;0.97;;;5.90;94.20;;;;;;5053654;28;20210;-71
2021/04/06 12:56:53;;;;;;;1.17;0.70;;;6.10;94.30;;;;;;5053725;28;20177;-71
2021/04/06 12:59:19;;;;;;;4.43;0.80;;;6.00;93.50;;;;;;5052864;28;20178;-71
2021/04/06 13:01:45;;;;;;;1.83;0.90;;;5.90;93.50;;;;;;5053644;28;20626;-72
2021/04/06 13:04:11;;;;;;;3.53;1.30;;;6.00;94.10;;;;;;5052612;28;20593;-71
2021/04/06 13:06:38;;;;;;;1.97;0.80;;;6.20;93.90;;;;;;5053287;28;20173;-71
2021/04/06 13:09:07;;;;;;;3.30;0.90;;;6.30;93.90;;;;;;5053556;28;20170;-71
2021/04/06 13:11:33;;;;;;;1.87;0.80;;;6.20;94.00;;;;;;5052308;28;20190;-72
2021/04/06 13:14:02;;;;;;;2.43;0.67;;;5.90;93.50;;;;;;5053192;28;20197;-71
2021/04/06 13:16:33;;;;;;;3.23;0.83;;;5.50;93.50;;;;;;5053478;28;20181;-71
2021/04/06 13:18:59;;;;;;;1.27;0.70;;;5.20;94.10;;;;;;5053625;28;20198;-71